Time;durP1;ratioP1;P1;durP2;ratioP2;P2;SDS_P1;SDS_P2;PMS_P1;PMS_P2;Temp;Humidity;BMP_temperature;BMP_pressure;BME280_temperature;BME280_humidity;BME280_pressure;Samples;Min_cycle;Max_cycle;Signal;HPM_P1;HPM_P2
2023/09/09 00:00:00;;;;;;;0.40;0.40;;;;;;;18.41;100.00;101816.28;2106360;28;20195;-68
2023/09/09 00:01:00;;;;;;;0.40;0.40;;;;;;;18.36;100.00;101816.09;2105864;28;20429;-68
2023/09/09 00:02:01;;;;;;;0.40;0.40;;;;;;;18.32;100.00;101810.59;2104145;28;20217;-68
2023/09/09 00:03:01;;;;;;;0.60;0.40;;;;;;;18.28;100.00;101816.31;2106823;28;20227;-68
2023/09/09 00:04:03;;;;;;;0.37;0.37;;;;;;;17.36;100.00;101680.63;2106880;28;20680;-68
2023/09/09 00:05:04;;;;;;;0.50;0.40;;;;;;;18.17;100.00;101807.50;2104593;28;20236;-68
2023/09/09 00:06:09;;;;;;;0.60;0.50;;;;;;;18.22;100.00;101816.59;2099676;28;20422;-68
2023/09/09 00:07:11;;;;;;;0.47;0.40;;;;;;;18.07;100.00;101795.91;2106798;28;20179;-68
2023/09/09 00:08:12;;;;;;;0.40;0.40;;;;;;;18.14;100.00;101813.25;2107127;28;20985;-68
2023/09/09 00:09:14;;;;;;;0.50;0.40;;;;;;;18.12;100.00;101810.09;2106865;28;20858;-68
2023/09/09 00:10:14;;;;;;;0.50;0.37;;;;;;;17.98;100.00;101814.22;2106765;28;20195;-68
2023/09/09 00:11:15;;;;;;;1.03;0.70;;;;;;;17.93;100.00;101811.97;2106479;28;20437;-68
2023/09/09 00:12:15;;;;;;;0.53;0.37;;;;;;;17.90;100.00;101812.13;2106712;28;20189;-68
2023/09/09 00:13:16;;;;;;;0.30;0.30;;;;;;;16.91;100.00;101677.38;2106810;28;20273;-67
2023/09/09 00:14:16;;;;;;;0.33;0.33;;;;;;;17.84;100.00;101816.75;2106678;28;20182;-67
2023/09/09 00:15:17;;;;;;;0.50;0.40;;;;;;;17.77;100.00;101807.78;2106728;28;20178;-68
2023/09/09 00:16:17;;;;;;;0.20;0.20;;;;;;;17.48;100.00;101777.16;2106660;28;20268;-68
2023/09/09 00:17:18;;;;;;;0.20;0.20;;;;;;;17.79;100.00;101817.31;2107030;28;20727;-68
2023/09/09 00:18:18;;;;;;;0.40;0.37;;;;;;;17.77;100.00;101817.00;2106871;28;20194;-68
2023/09/09 00:19:21;;;;;;;0.33;0.33;;;;;;;17.76;100.00;101818.22;2106709;28;20199;-67
2023/09/09 00:20:34;;;;;;;0.23;0.23;;;;;;;17.73;100.00;101826.75;2106481;28;20191;-67
2023/09/09 00:21:35;;;;;;;0.20;0.20;;;;;;;17.70;100.00;101822.81;2106592;28;20587;-68
2023/09/09 00:22:35;;;;;;;0.80;0.40;;;;;;;17.68;100.00;101819.72;2106774;28;20505;-68
2023/09/09 00:23:36;;;;;;;0.80;0.60;;;;;;;17.66;100.00;101819.34;2106647;28;20209;-68
2023/09/09 00:24:36;;;;;;;0.30;0.30;;;;;;;17.63;100.00;101818.25;2104112;28;20180;-68
2023/09/09 00:25:38;;;;;;;0.40;0.37;;;;;;;17.63;100.00;101819.47;2106481;28;20175;-68
2023/09/09 00:26:38;;;;;;;0.20;0.20;;;;;;;17.61;100.00;101830.38;2106134;28;20179;-68
2023/09/09 00:27:39;;;;;;;1.47;0.57;;;;;;;17.41;100.00;101794.22;2098505;28;20466;-67
2023/09/09 00:28:39;;;;;;;0.57;0.30;;;;;;;17.50;100.00;101815.94;2106195;28;20213;-68
2023/09/09 00:29:40;;;;;;;0.23;0.23;;;;;;;17.52;100.00;101825.47;2100146;28;20660;-67
2023/09/09 00:30:41;;;;;;;0.50;0.33;;;;;;;17.15;100.00;101767.41;2103222;28;20303;-67
2023/09/09 00:31:41;;;;;;;0.43;0.30;;;;;;;16.75;100.00;101722.31;2106625;28;20572;-67
2023/09/09 00:32:42;;;;;;;0.57;0.33;;;;;;;17.40;100.00;101828.28;2106591;28;20453;-67
2023/09/09 00:33:42;;;;;;;0.30;0.30;;;;;;;17.37;100.00;101822.28;2106663;28;20190;-67
2023/09/09 00:34:42;;;;;;;1.20;0.83;;;;;;;17.34;100.00;101823.22;2106180;28;20246;-67
2023/09/09 00:35:43;;;;;;;0.20;0.20;;;;;;;16.80;100.00;101740.56;2106821;28;20210;-67
2023/09/09 00:36:43;;;;;;;0.40;0.30;;;;;;;17.29;100.00;101823.78;2106491;28;20679;-67
2023/09/09 00:37:44;;;;;;;0.70;0.43;;;;;;;17.17;100.00;101821.75;2106749;28;20275;-67
2023/09/09 00:38:44;;;;;;;1.03;0.50;;;;;;;17.16;100.00;101820.19;2106458;28;20183;-67
2023/09/09 00:39:44;;;;;;;0.47;0.37;;;;;;;17.14;100.00;101819.84;2106682;28;20194;-67
2023/09/09 00:41:09;;;;;;;0.37;0.37;;;;;;;17.09;100.00;101817.63;2106118;28;20241;-67
2023/09/09 00:42:09;;;;;;;0.20;0.20;;;;;;;17.03;100.00;101827.03;2106679;28;20191;-67
2023/09/09 00:43:10;;;;;;;0.50;0.30;;;;;;;16.96;100.00;101830.81;2102256;28;20489;-67
2023/09/09 00:44:10;;;;;;;0.37;0.37;;;;;;;16.80;100.00;101825.31;2101061;28;20203;-67
2023/09/09 00:45:11;;;;;;;0.57;0.33;;;;;;;16.63;100.00;101835.03;2106451;28;20179;-67
2023/09/09 00:46:13;;;;;;;0.30;0.30;;;;;;;16.61;100.00;101842.31;2106539;28;20179;-67
2023/09/09 00:47:14;;;;;;;0.60;0.50;;;;;;;16.62;100.00;101829.13;2106781;28;20532;-67
2023/09/09 00:48:14;;;;;;;0.30;0.30;;;;;;;16.59;100.00;101830.78;2106439;28;20597;-67
2023/09/09 00:49:15;;;;;;;0.50;0.40;;;;;;;16.53;100.00;101833.34;2106615;28;20194;-67
2023/09/09 00:50:15;;;;;;;0.30;0.30;;;;;;;16.53;100.00;101824.94;2100616;28;20224;-68
2023/09/09 00:51:16;;;;;;;0.60;0.37;;;;;;;16.53;100.00;101826.94;2102138;28;20232;-68
2023/09/09 00:52:16;;;;;;;0.30;0.30;;;;;;;15.40;100.00;101664.38;2106320;28;20190;-67
2023/09/09 00:53:16;;;;;;;0.30;0.30;;;;;;;16.49;100.00;101834.69;2106176;28;20261;-67
2023/09/09 00:54:17;;;;;;;0.50;0.50;;;;;;;16.49;100.00;101826.28;2106385;28;20652;-67
2023/09/09 00:55:17;;;;;;;0.30;0.30;;;;;;;16.42;100.00;101835.66;2106679;28;20261;-67
2023/09/09 00:56:18;;;;;;;0.50;0.33;;;;;;;16.52;100.00;101831.78;2106689;28;20183;-67
2023/09/09 00:57:19;;;;;;;0.73;0.50;;;;;;;16.53;100.00;101824.16;2106442;28;20221;-67
2023/09/09 00:58:19;;;;;;;0.40;0.30;;;;;;;15.41;100.00;101660.38;2100323;28;20198;-67
2023/09/09 00:59:20;;;;;;;0.40;0.40;;;;;;;16.46;100.00;101824.38;2098058;28;20253;-67
2023/09/09 01:00:20;;;;;;;1.07;0.40;;;;;;;16.54;100.00;101834.91;2101517;28;20195;-67
2023/09/09 01:01:21;;;;;;;0.30;0.30;;;;;;;16.54;100.00;101832.09;2106183;28;20647;-67
2023/09/09 01:02:21;;;;;;;0.30;0.20;;;;;;;16.53;100.00;101826.94;2105725;28;20179;-67
2023/09/09 01:03:22;;;;;;;0.20;0.20;;;;;;;16.50;100.00;101831.41;2105729;28;20250;-67
2023/09/09 01:04:23;;;;;;;0.40;0.40;;;;;;;16.50;100.00;101834.22;2106534;28;20175;-67
2023/09/09 01:05:24;;;;;;;0.33;0.30;;;;;;;16.50;100.00;101831.41;2106403;28;20205;-67
2023/09/09 01:06:24;;;;;;;0.47;0.30;;;;;;;16.52;100.00;101850.56;2106433;28;20202;-67
2023/09/09 01:07:26;;;;;;;0.60;0.20;;;;;;;16.52;100.00;101828.19;2106332;28;20234;-67
2023/09/09 01:08:27;;;;;;;0.33;0.33;;;;;;;15.51;100.00;101673.25;2106353;28;20235;-67
2023/09/09 01:09:31;;;;;;;0.20;0.20;;;;;;;15.77;100.00;101714.03;2106366;28;20868;-67
2023/09/09 01:10:32;;;;;;;0.50;0.40;;;;;;;16.53;100.00;101829.75;2105908;28;20448;-67
2023/09/09 01:11:32;;;;;;;0.47;0.47;;;;;;;16.52;100.00;101825.38;2106180;28;20409;-67
2023/09/09 01:12:33;;;;;;;0.60;0.57;;;;;;;16.49;100.00;101824.25;2106248;28;20559;-67
2023/09/09 01:13:33;;;;;;;0.23;0.23;;;;;;;16.48;100.00;101827.50;2106533;28;20607;-67
2023/09/09 01:14:34;;;;;;;0.20;0.20;;;;;;;16.45;100.00;101823.56;2106288;28;20201;-67
2023/09/09 01:15:34;;;;;;;0.60;0.60;;;;;;;16.45;100.00;101817.97;2106284;28;20251;-67
2023/09/09 01:16:35;;;;;;;0.50;0.50;;;;;;;16.43;100.00;101822.44;2106296;28;20199;-67
2023/09/09 01:17:36;;;;;;;0.83;0.43;;;;;;;15.22;100.00;101635.34;2105607;28;20185;-67
2023/09/09 01:18:37;;;;;;;0.30;0.30;;;;;;;16.32;100.00;101822.72;2105574;28;20214;-67
2023/09/09 01:19:38;;;;;;;0.47;0.47;;;;;;;16.29;100.00;101822.84;2106238;28;20417;-67
2023/09/09 01:20:43;;;;;;;0.20;0.20;;;;;;;16.23;100.00;101822.59;2105718;28;20187;-67
2023/09/09 01:21:45;;;;;;;0.30;0.27;;;;;;;15.16;100.00;101659.44;2106368;28;20182;-67
2023/09/09 01:22:49;;;;;;;0.23;0.23;;;;;;;16.15;100.00;101826.81;2106418;28;20427;-67
2023/09/09 01:23:50;;;;;;;0.93;0.70;;;;;;;16.13;100.00;101820.09;2106385;28;20447;-67
2023/09/09 01:24:50;;;;;;;0.40;0.40;;;;;;;16.11;100.00;101825.34;2106088;28;20513;-67
2023/09/09 01:25:51;;;;;;;0.30;0.30;;;;;;;16.09;100.00;101822.22;2106432;28;20571;-67
2023/09/09 01:26:51;;;;;;;0.50;0.50;;;;;;;16.10;100.00;101821.78;2106084;28;20676;-67
2023/09/09 01:27:51;;;;;;;0.20;0.20;;;;;;;16.12;100.00;101821.31;2105487;28;20756;-67
2023/09/09 01:28:52;;;;;;;0.10;0.10;;;;;;;16.13;100.00;101820.88;2105587;28;20711;-67
2023/09/09 01:29:52;;;;;;;0.20;0.20;;;;;;;16.09;100.00;101813.81;2106161;28;20734;-67
2023/09/09 01:30:53;;;;;;;0.30;0.30;;;;;;;16.07;100.00;101808.66;2105971;28;20178;-67
2023/09/09 01:31:53;;;;;;;0.50;0.30;;;;;;;16.18;100.00;101825.16;2106207;28;20187;-67
2023/09/09 01:32:53;;;;;;;1.17;0.63;;;;;;;16.19;100.00;101821.91;2106229;28;20679;-67
2023/09/09 01:33:56;;;;;;;0.13;0.13;;;;;;;16.19;100.00;101823.94;2106123;28;20190;-67
2023/09/09 01:34:57;;;;;;;0.43;0.40;;;;;;;16.21;100.00;101824.25;2106193;28;20255;-67
2023/09/09 01:35:57;;;;;;;0.53;0.50;;;;;;;16.19;100.00;101830.28;2102302;28;20471;-67
2023/09/09 01:36:57;;;;;;;0.30;0.30;;;;;;;16.18;100.00;101825.16;2097689;28;20781;-67
2023/09/09 01:37:58;;;;;;;1.23;0.50;;;;;;;16.18;100.00;101823.13;2099359;28;20607;-67
2023/09/09 01:38:59;;;;;;;0.43;0.43;;;;;;;16.19;100.00;101823.94;2105960;28;20262;-67
2023/09/09 01:40:09;;;;;;;0.80;0.70;;;;;;;15.26;100.00;101673.09;2106391;28;20171;-67
2023/09/09 01:41:09;;;;;;;0.30;0.23;;;;;;;16.22;100.00;101823.03;2097498;28;20164;-67
2023/09/09 01:42:10;;;;;;;0.33;0.33;;;;;;;15.42;100.00;101701.03;2105699;28;20502;-67
2023/09/09 01:43:10;;;;;;;0.20;0.20;;;;;;;16.20;100.00;101828.28;2105973;28;20273;-67
2023/09/09 01:44:11;;;;;;;0.40;0.40;;;;;;;15.55;100.00;101741.00;2106197;28;20612;-67
2023/09/09 01:45:12;;;;;;;0.37;0.30;;;;;;;15.95;100.00;101820.59;2101696;28;20190;-67
2023/09/09 01:46:12;;;;;;;0.63;0.33;;;;;;;15.86;100.00;101809.25;2100290;28;20190;-67
2023/09/09 01:47:16;;;;;;;0.20;0.20;;;;;;;15.89;100.00;101822.31;2106088;28;20205;-67
2023/09/09 01:48:16;;;;;;;0.37;0.37;;;;;;;15.88;100.00;101820.75;2105197;28;20378;-67
2023/09/09 01:49:16;;;;;;;0.40;0.30;;;;;;;15.86;100.00;101825.22;2105480;28;20929;-67
2023/09/09 01:50:17;;;;;;;0.17;0.17;;;;;;;15.05;100.00;101709.16;2105427;28;20659;-67
2023/09/09 01:51:17;;;;;;;0.90;0.50;;;;;;;15.61;100.00;101788.75;2104929;28;20609;-67
2023/09/09 01:52:18;;;;;;;0.30;0.30;;;;;;;15.86;100.00;101825.22;2105905;28;20243;-67
2023/09/09 01:53:18;;;;;;;0.20;0.20;;;;;;;15.85;100.00;101824.44;2105841;28;20581;-67
2023/09/09 01:54:19;;;;;;;0.30;0.27;;;;;;;15.88;100.00;101826.34;2102180;28;20545;-67
2023/09/09 01:55:19;;;;;;;1.00;0.63;;;;;;;15.77;100.00;101814.66;2100132;28;20183;-67
2023/09/09 01:56:20;;;;;;;0.70;0.20;;;;;;;15.87;100.00;101826.78;2104587;28;20179;-67
2023/09/09 01:57:22;;;;;;;0.43;0.43;;;;;;;15.86;100.00;101825.22;2097822;28;20224;-67
2023/09/09 01:58:22;;;;;;;0.37;0.37;;;;;;;15.16;100.00;101718.09;2106288;28;20356;-67
2023/09/09 01:59:22;;;;;;;0.30;0.30;;;;;;;15.87;100.00;101830.38;2098489;28;20444;-67
2023/09/09 02:00:23;;;;;;;0.40;0.27;;;;;;;15.89;100.00;101824.34;2103758;28;20220;-67
2023/09/09 02:01:23;;;;;;;0.20;0.20;;;;;;;15.83;100.00;101823.31;2100449;28;20583;-67
2023/09/09 02:02:24;;;;;;;0.30;0.30;;;;;;;15.89;100.00;101827.16;2101690;28;20286;-67
2023/09/09 02:03:25;;;;;;;0.20;0.20;;;;;;;15.91;100.00;101828.28;2105931;28;20183;-67
2023/09/09 02:04:25;;;;;;;0.77;0.30;;;;;;;15.93;100.00;101833.44;2105827;28;20210;-67
2023/09/09 02:05:26;;;;;;;0.27;0.27;;;;;;;15.92;100.00;101827.03;2105320;28;20459;-67
2023/09/09 02:06:27;;;;;;;1.47;1.07;;;;;;;15.93;100.00;101833.44;2105432;28;20671;-67
2023/09/09 02:07:27;;;;;;;0.30;0.30;;;;;;;15.92;100.00;101829.03;2106024;28;20191;-67
2023/09/09 02:08:28;;;;;;;2.63;1.73;;;;;;;15.91;100.00;101835.88;2105789;28;20474;-67
2023/09/09 02:09:28;;;;;;;0.20;0.20;;;;;;;15.90;100.00;101834.31;2105996;28;20580;-67
2023/09/09 02:10:28;;;;;;;0.40;0.20;;;;;;;15.89;100.00;101827.91;2105339;28;20210;-67
2023/09/09 02:11:29;;;;;;;0.73;0.50;;;;;;;15.88;100.00;101833.97;2105932;28;20186;-67
2023/09/09 02:12:30;;;;;;;0.30;0.30;;;;;;;15.88;100.00;101831.16;2105742;28;20221;-67
2023/09/09 02:13:30;;;;;;;0.20;0.20;;;;;;;15.86;100.00;101831.59;2104903;28;20171;-67
2023/09/09 02:14:31;;;;;;;0.20;0.20;;;;;;;15.87;100.00;101837.97;2097640;28;20670;-67
2023/09/09 02:15:31;;;;;;;0.60;0.60;;;;;;;15.05;100.00;101715.53;2097633;28;20210;-67
2023/09/09 02:16:32;;;;;;;1.80;0.70;;;;;;;15.77;100.00;101834.22;2104632;28;20460;-67
2023/09/09 02:17:34;;;;;;;0.37;0.20;;;;;;;15.80;100.00;101843.75;2105860;28;20232;-67
2023/09/09 02:18:39;;;;;;;0.20;0.17;;;;;;;15.79;100.00;101844.97;2100854;28;20738;-68
2023/09/09 02:19:40;;;;;;;0.50;0.33;;;;;;;15.77;100.00;101842.63;2102074;28;20468;-68
2023/09/09 02:20:40;;;;;;;0.20;0.20;;;;;;;15.75;100.00;101845.06;2102069;28;20942;-68
2023/09/09 02:21:40;;;;;;;0.67;0.40;;;;;;;15.77;100.00;101847.44;2099483;28;20669;-68
2023/09/09 02:22:41;;;;;;;0.50;0.30;;;;;;;15.73;100.00;101836.31;2105092;28;20648;-68
2023/09/09 02:23:42;;;;;;;0.10;0.10;;;;;;;15.72;100.00;101845.94;2105370;28;20727;-68
2023/09/09 02:24:42;;;;;;;0.60;0.40;;;;;;;15.74;100.00;101840.72;2105801;28;20193;-68
2023/09/09 02:25:43;;;;;;;0.30;0.30;;;;;;;15.73;100.00;101839.13;2098738;28;20640;-68
2023/09/09 02:26:43;;;;;;;0.20;0.20;;;;;;;15.75;100.00;101847.88;2103480;28;20278;-68
2023/09/09 02:27:44;;;;;;;0.10;0.10;;;;;;;15.76;100.00;101845.84;2105769;28;20225;-68
2023/09/09 02:28:45;;;;;;;0.17;0.17;;;;;;;15.59;100.00;101819.94;2105739;28;20627;-68
2023/09/09 02:29:45;;;;;;;0.47;0.20;;;;;;;15.77;100.00;101845.41;2103242;28;20176;-68
2023/09/09 02:30:46;;;;;;;0.60;0.30;;;;;;;15.78;100.00;101844.19;2098248;28;20425;-67
2023/09/09 02:31:46;;;;;;;0.30;0.30;;;;;;;15.80;100.00;101838.16;2105632;28;20229;-67
2023/09/09 02:32:47;;;;;;;0.30;0.30;;;;;;;15.83;100.00;101838.06;2105875;28;20206;-67
2023/09/09 02:33:47;;;;;;;0.27;0.27;;;;;;;15.85;100.00;101838.44;2105914;28;20247;-67
2023/09/09 02:34:48;;;;;;;0.33;0.30;;;;;;;15.84;100.00;101836.81;2105659;28;20355;-67
2023/09/09 02:35:48;;;;;;;0.27;0.20;;;;;;;15.86;100.00;101844.78;2105673;28;20194;-67
2023/09/09 02:37:16;;;;;;;0.30;0.30;;;;;;;15.87;100.00;101841.56;2101898;28;20184;-67
2023/09/09 02:38:17;;;;;;;0.10;0.10;;;;;;;15.88;100.00;101837.53;2103938;28;20226;-67
2023/09/09 02:39:17;;;;;;;0.40;0.40;;;;;;;15.90;100.00;101845.47;2105642;28;20435;-67
2023/09/09 02:40:18;;;;;;;0.40;0.40;;;;;;;15.87;100.00;101841.56;2105444;28;20229;-67
2023/09/09 02:41:18;;;;;;;0.20;0.20;;;;;;;14.97;100.00;101714.13;2104729;28;20225;-67
2023/09/09 02:42:23;;;;;;;3.20;0.60;;;;;;;15.83;100.00;101840.09;2105043;28;20261;-67
2023/09/09 02:43:24;;;;;;;0.40;0.40;;;;;;;15.85;100.00;101846.81;2105589;28;20207;-67
2023/09/09 02:44:24;;;;;;;0.20;0.20;;;;;;;15.85;100.00;101840.44;2105592;28;20945;-67
2023/09/09 02:45:24;;;;;;;0.23;0.23;;;;;;;15.86;100.00;101840.00;2105816;28;20746;-67
2023/09/09 02:46:25;;;;;;;0.20;0.20;;;;;;;15.23;100.00;101743.03;2105728;28;20656;-67
2023/09/09 02:47:25;;;;;;;0.63;0.50;;;;;;;15.89;100.00;101847.47;2105793;28;20185;-67
2023/09/09 02:48:26;;;;;;;0.40;0.30;;;;;;;15.93;100.00;101839.03;2099901;28;20195;-67
2023/09/09 02:49:26;;;;;;;0.20;0.20;;;;;;;15.95;100.00;101842.94;2100538;28;20187;-67
2023/09/09 02:50:27;;;;;;;0.30;0.30;;;;;;;15.94;100.00;101837.78;2102558;28;20322;-67
2023/09/09 02:51:27;;;;;;;0.50;0.50;;;;;;;15.94;100.00;101846.19;2098538;28;20237;-67
2023/09/09 02:52:28;;;;;;;0.40;0.40;;;;;;;15.93;100.00;101837.00;2105214;28;20191;-67
2023/09/09 02:53:30;;;;;;;0.40;0.20;;;;;;;15.98;100.00;101841.28;2101102;28;20183;-67
2023/09/09 02:54:30;;;;;;;0.50;0.50;;;;;;;15.97;100.00;101834.09;2105730;28;20562;-67
2023/09/09 02:55:30;;;;;;;0.30;0.30;;;;;;;15.96;100.00;101830.53;2105653;28;20491;-67
2023/09/09 02:56:31;;;;;;;0.40;0.40;;;;;;;15.97;100.00;101834.09;2105557;28;20191;-67
2023/09/09 02:57:31;;;;;;;0.30;0.30;;;;;;;15.99;100.00;101834.47;2106288;28;20194;-67
2023/09/09 02:58:32;;;;;;;0.20;0.20;;;;;;;16.00;100.00;101836.03;2104219;28;20186;-67
2023/09/09 02:59:35;;;;;;;0.50;0.37;;;;;;;15.15;100.00;101699.72;2100926;28;20178;-67
2023/09/09 03:00:35;;;;;;;0.53;0.40;;;;;;;15.98;100.00;101833.66;2106887;28;20182;-67
2023/09/09 03:01:36;;;;;;;0.33;0.27;;;;;;;15.97;100.00;101832.09;2107474;28;21050;-67
2023/09/09 03:02:36;;;;;;;0.20;0.20;;;;;;;15.90;100.00;101832.31;2107519;28;20682;-67
2023/09/09 03:03:36;;;;;;;0.30;0.30;;;;;;;15.85;100.00;101835.63;2107341;28;20300;-67
2023/09/09 03:04:37;;;;;;;0.17;0.17;;;;;;;15.86;100.00;101837.19;2107360;28;20226;-67
2023/09/09 03:05:37;;;;;;;0.50;0.30;;;;;;;15.88;100.00;101826.34;2107444;28;20457;-67
2023/09/09 03:06:38;;;;;;;0.50;0.33;;;;;;;15.87;100.00;101832.38;2107301;28;20247;-67
2023/09/09 03:07:39;;;;;;;0.83;0.70;;;;;;;15.73;100.00;101821.59;2107246;28;20188;-67
2023/09/09 03:08:39;;;;;;;0.20;0.20;;;;;;;15.81;100.00;101828.53;2107216;28;20185;-68
2023/09/09 03:09:40;;;;;;;0.30;0.30;;;;;;;15.24;100.00;101745.38;2107368;28;20448;-68
2023/09/09 03:10:40;;;;;;;0.30;0.30;;;;;;;15.81;100.00;101834.13;2098701;28;20182;-68
2023/09/09 03:11:41;;;;;;;0.20;0.20;;;;;;;15.80;100.00;101832.56;2098975;28;20724;-68
2023/09/09 03:12:41;;;;;;;0.93;0.50;;;;;;;15.77;100.00;101836.25;2098905;28;20221;-68
2023/09/09 03:13:42;;;;;;;0.20;0.20;;;;;;;15.62;100.00;101823.88;2098929;28;20230;-68
2023/09/09 03:14:43;;;;;;;0.97;0.37;;;;;;;15.77;100.00;101837.03;2102780;28;20199;-68
2023/09/09 03:15:43;;;;;;;0.50;0.50;;;;;;;15.79;100.00;101840.16;2107200;28;20518;-68
2023/09/09 03:16:45;;;;;;;0.40;0.37;;;;;;;15.79;100.00;101834.56;2105836;28;20191;-68
2023/09/09 03:17:45;;;;;;;0.20;0.20;;;;;;;15.82;100.00;101838.50;2098844;28;20266;-68
2023/09/09 03:18:46;;;;;;;0.47;0.37;;;;;;;15.27;100.00;101752.88;2099110;28;20425;-68
2023/09/09 03:19:46;;;;;;;0.43;0.30;;;;;;;15.77;100.00;101825.06;2098973;28;20664;-68
2023/09/09 03:20:46;;;;;;;0.60;0.40;;;;;;;15.82;100.00;101827.31;2098477;28;20183;-68
2023/09/09 03:21:47;;;;;;;0.23;0.23;;;;;;;15.46;100.00;101779.94;2104108;28;20223;-68
2023/09/09 03:22:47;;;;;;;0.40;0.30;;;;;;;15.79;100.00;101828.22;2102962;28;20192;-68
2023/09/09 03:23:48;;;;;;;0.20;0.20;;;;;;;15.80;100.00;101830.56;2098940;28;20590;-68
2023/09/09 03:24:48;;;;;;;0.20;0.20;;;;;;;15.81;100.00;101834.13;2100155;28;20644;-68
2023/09/09 03:25:49;;;;;;;0.30;0.30;;;;;;;15.44;100.00;101779.63;2106620;28;20667;-68
2023/09/09 03:26:49;;;;;;;0.20;0.20;;;;;;;15.81;100.00;101831.34;2098968;28;20186;-68
2023/09/09 03:27:50;;;;;;;0.40;0.40;;;;;;;15.81;100.00;101832.13;2106709;28;20194;-68
2023/09/09 03:28:51;;;;;;;0.30;0.30;;;;;;;15.81;100.00;101832.13;2100394;28;20652;-68
2023/09/09 03:29:51;;;;;;;0.10;0.10;;;;;;;15.79;100.00;101839.38;2104424;28;20675;-68
2023/09/09 03:30:56;;;;;;;0.80;0.30;;;;;;;15.77;100.00;101837.03;2106764;28;20217;-68
2023/09/09 03:31:57;;;;;;;0.80;0.30;;;;;;;15.75;100.00;101835.91;2107093;28;20179;-69
2023/09/09 03:32:59;;;;;;;0.20;0.20;;;;;;;15.74;100.00;101834.31;2107025;28;20933;-68
2023/09/09 03:33:59;;;;;;;0.33;0.33;;;;;;;15.73;100.00;101839.13;2105526;28;20185;-68
2023/09/09 03:34:59;;;;;;;0.27;0.27;;;;;;;15.69;100.00;101832.88;2106329;28;20459;-68
2023/09/09 03:36:00;;;;;;;0.30;0.30;;;;;;;15.61;100.00;101833.44;2106713;28;20182;-68
2023/09/09 03:37:00;;;;;;;0.73;0.37;;;;;;;15.56;100.00;101831.97;2098629;28;20579;-68
2023/09/09 03:38:01;;;;;;;0.27;0.27;;;;;;;15.46;100.00;101830.25;2104652;28;20191;-68
2023/09/09 03:39:03;;;;;;;1.80;0.47;;;;;;;15.34;100.00;101827.34;2107077;28;20187;-68
2023/09/09 03:40:05;;;;;;;0.50;0.43;;;;;;;15.28;100.00;101838.25;2107067;28;20189;-68
2023/09/09 03:41:06;;;;;;;0.40;0.40;;;;;;;15.28;100.00;101843.03;2106697;28;20440;-68
2023/09/09 03:42:07;;;;;;;0.67;0.30;;;;;;;15.23;100.00;101841.56;2106850;28;20472;-68
2023/09/09 03:43:07;;;;;;;0.80;0.40;;;;;;;15.16;100.00;101836.13;2106904;28;20429;-68
2023/09/09 03:44:08;;;;;;;0.20;0.20;;;;;;;15.13;100.00;101844.59;2107050;28;20190;-68
2023/09/09 03:45:10;;;;;;;0.30;0.30;;;;;;;15.09;100.00;101835.50;2107097;28;20527;-68
2023/09/09 03:46:10;;;;;;;0.33;0.33;;;;;;;15.13;100.00;101848.19;2107209;28;20204;-68
2023/09/09 03:47:11;;;;;;;0.50;0.30;;;;;;;15.06;100.00;101839.19;2100675;28;20482;-68
2023/09/09 03:48:11;;;;;;;0.67;0.67;;;;;;;14.76;100.00;101806.75;2103861;28;20571;-69
2023/09/09 03:49:11;;;;;;;0.73;0.50;;;;;;;14.96;100.00;101840.22;2106901;28;20731;-69
2023/09/09 03:50:12;;;;;;;0.30;0.30;;;;;;;14.97;100.00;101836.97;2107011;28;20190;-69
2023/09/09 03:51:12;;;;;;;0.23;0.20;;;;;;;14.92;100.00;101859.84;2106323;28;20261;-69
2023/09/09 03:52:13;;;;;;;0.20;0.20;;;;;;;14.86;100.00;101846.81;2107002;28;20181;-68
2023/09/09 03:53:13;;;;;;;0.20;0.20;;;;;;;14.80;100.00;101835.34;2105448;28;20617;-68
2023/09/09 03:54:13;;;;;;;0.30;0.20;;;;;;;14.92;100.00;101843.09;2106399;28;20674;-68
2023/09/09 03:55:14;;;;;;;0.20;0.20;;;;;;;14.95;100.00;101846.97;2107128;28;20202;-68
2023/09/09 03:56:17;;;;;;;0.20;0.20;;;;;;;14.96;100.00;101846.56;2106910;28;20257;-68
2023/09/09 03:57:17;;;;;;;0.30;0.20;;;;;;;14.98;100.00;101846.13;2106967;28;20268;-68
2023/09/09 03:58:18;;;;;;;0.77;0.40;;;;;;;15.01;100.00;101848.06;2107043;28;20473;-68
2023/09/09 03:59:18;;;;;;;0.20;0.20;;;;;;;14.98;100.00;101846.94;2106873;28;20271;-68
2023/09/09 04:00:19;;;;;;;0.30;0.30;;;;;;;14.45;100.00;101774.75;2105641;28;20655;-68
2023/09/09 04:01:19;;;;;;;0.30;0.30;;;;;;;14.98;100.00;101852.50;2098521;28;20168;-68
2023/09/09 04:02:20;;;;;;;0.83;0.23;;;;;;;14.96;100.00;101857.72;2097851;28;20200;-68
2023/09/09 04:03:20;;;;;;;0.40;0.20;;;;;;;14.87;100.00;101845.59;2097941;28;20176;-68
2023/09/09 04:04:20;;;;;;;1.70;0.43;;;;;;;14.92;100.00;101857.03;2098501;28;20233;-68
2023/09/09 04:05:21;;;;;;;0.47;0.43;;;;;;;14.91;100.00;101857.47;2098621;28;20176;-68
2023/09/09 04:06:21;;;;;;;0.40;0.40;;;;;;;14.87;100.00;101854.75;2098429;28;20234;-68
2023/09/09 04:07:21;;;;;;;0.20;0.20;;;;;;;14.87;100.00;101863.13;2098597;28;20179;-68
2023/09/09 04:08:22;;;;;;;0.10;0.10;;;;;;;14.83;100.00;101858.81;2098302;28;20196;-68
2023/09/09 04:09:26;;;;;;;0.40;0.30;;;;;;;14.75;100.00;101863.00;2098059;28;20168;-68
2023/09/09 04:10:26;;;;;;;0.33;0.33;;;;;;;14.72;100.00;101864.66;2105214;28;20187;-68
2023/09/09 04:11:27;;;;;;;0.10;0.10;;;;;;;14.70;100.00;101861.47;2106803;28;20961;-68
2023/09/09 04:12:27;;;;;;;0.40;0.40;;;;;;;14.31;100.00;101802.16;2100352;28;20188;-68
2023/09/09 04:13:28;;;;;;;1.03;0.60;;;;;;;14.73;100.00;101869.00;2103797;28;20294;-68
2023/09/09 04:14:28;;;;;;;0.63;0.37;;;;;;;14.76;100.00;101870.16;2106773;28;20270;-68
2023/09/09 04:15:29;;;;;;;0.40;0.30;;;;;;;14.72;100.00;101872.22;2106766;28;20221;-68
2023/09/09 04:16:29;;;;;;;0.30;0.30;;;;;;;14.77;100.00;101871.72;2104988;28;20178;-68
2023/09/09 04:17:29;;;;;;;0.13;0.10;;;;;;;14.79;100.00;101872.06;2098495;28;20202;-68
2023/09/09 04:18:30;;;;;;;0.53;0.53;;;;;;;14.79;100.00;101861.69;2098557;28;20179;-68
2023/09/09 04:19:30;;;;;;;0.20;0.20;;;;;;;14.80;100.00;101868.84;2098516;28;20191;-68
2023/09/09 04:20:31;;;;;;;0.20;0.20;;;;;;;14.79;100.00;101872.84;2098077;28;20680;-69
2023/09/09 04:21:31;;;;;;;0.43;0.37;;;;;;;14.83;100.00;101872.78;2098331;28;20569;-68
2023/09/09 04:22:32;;;;;;;0.40;0.40;;;;;;;14.87;100.00;101865.91;2098493;28;20179;-67
2023/09/09 04:23:32;;;;;;;0.50;0.50;;;;;;;14.61;100.00;101818.66;2098371;28;20633;-67
2023/09/09 04:24:32;;;;;;;0.40;0.40;;;;;;;14.91;100.00;101868.63;2098390;28;20179;-68
2023/09/09 04:25:33;;;;;;;0.60;0.23;;;;;;;14.92;100.00;101868.19;2105816;28;20183;-68
2023/09/09 04:26:33;;;;;;;0.63;0.63;;;;;;;14.94;100.00;101874.13;2106957;28;20566;-68
2023/09/09 04:27:34;;;;;;;0.60;0.60;;;;;;;14.94;100.00;101865.75;2098924;28;20706;-67
2023/09/09 04:28:35;;;;;;;0.50;0.50;;;;;;;14.95;100.00;101872.09;2098332;28;20206;-67
2023/09/09 04:29:35;;;;;;;0.77;0.63;;;;;;;14.97;100.00;101869.69;2098395;28;20465;-68
2023/09/09 04:30:38;;;;;;;0.40;0.40;;;;;;;14.96;100.00;101868.88;2097934;28;20290;-68
2023/09/09 04:31:39;;;;;;;0.37;0.37;;;;;;;14.94;100.00;101868.53;2098250;28;20194;-68
2023/09/09 04:32:39;;;;;;;0.17;0.17;;;;;;;14.95;100.00;101863.72;2097539;28;20774;-68
2023/09/09 04:33:39;;;;;;;0.10;0.10;;;;;;;14.96;100.00;101873.69;2097794;28;20255;-68
2023/09/09 04:34:40;;;;;;;0.27;0.27;;;;;;;14.94;100.00;101862.16;2098116;28;20179;-68
2023/09/09 04:35:44;;;;;;;1.00;0.50;;;;;;;14.95;100.00;101872.91;2098542;28;20180;-68
2023/09/09 04:36:45;;;;;;;0.30;0.30;;;;;;;14.90;100.00;101872.66;2098233;28;20606;-68
2023/09/09 04:37:45;;;;;;;0.30;0.30;;;;;;;14.92;100.00;101868.19;2098376;28;20447;-68
2023/09/09 04:38:46;;;;;;;0.47;0.30;;;;;;;14.95;100.00;101866.53;2098196;28;20425;-68
2023/09/09 04:39:46;;;;;;;0.20;0.20;;;;;;;14.98;100.00;101869.25;2098321;28;20188;-68